Time;durP1;ratioP1;P1;durP2;ratioP2;P2;SDS_P1;SDS_P2;PMS_P1;PMS_P2;Temp;Humidity;BMP_temperature;BMP_pressure;BME280_temperature;BME280_humidity;BME280_pressure;Samples;Min_cycle;Max_cycle;Signal;HPM_P1;HPM_P2
2021/11/13 00:02:18;;;;;;;0.45;0.45;;;7.70;99.90;;;;;;5070798;28;20037;-82
2021/11/13 00:04:44;;;;;;;0.10;0.10;;;7.60;99.90;;;;;;5054960;28;20036;-87
2021/11/13 00:07:11;;;;;;;0.10;0.10;;;7.60;99.90;;;;;;5088134;28;20468;-87
2021/11/13 00:09:38;;;;;;;24.13;0.77;;;7.60;99.90;;;;;;5087181;28;20041;-87
2021/11/13 00:12:05;;;;;;;0.03;0.03;;;7.60;99.90;;;;;;5071108;28;20037;-82
2021/11/13 00:14:33;;;;;;;0.08;0.08;;;7.70;99.90;;;;;;5103776;28;20049;-87
2021/11/13 00:17:00;;;;;;;0.00;0.00;;;7.70;99.90;;;;;;5104287;28;20789;-87
2021/11/13 00:19:27;;;;;;;0.30;0.30;;;7.70;99.90;;;;;;5104176;28;20037;-87
2021/11/13 00:21:54;;;;;;;0.10;0.10;;;7.70;99.90;;;;;;5087542;28;20155;-82
2021/11/13 00:24:21;;;;;;;0.10;0.10;;;7.70;99.90;;;;;;5120592;28;20060;-82
2021/11/13 00:26:47;;;;;;;4.55;0.70;;;7.70;99.90;;;;;;5054425;28;20041;-88
2021/11/13 00:29:14;;;;;;;0.05;0.05;;;7.70;99.90;;;;;;5104039;28;20037;-82
2021/11/13 00:31:41;;;;;;;0.20;0.20;;;7.70;99.90;;;;;;5087463;28;20103;-87
2021/11/13 00:34:08;;;;;;;0.10;0.10;;;7.70;99.90;;;;;;5070259;28;20078;-82
2021/11/13 00:36:34;;;;;;;0.10;0.10;;;7.70;99.90;;;;;;5101920;28;20036;-87
2021/11/13 00:39:03;;;;;;;0.10;0.10;;;7.70;99.90;;;;;;5107286;28;20040;-82
2021/11/13 00:41:30;;;;;;;0.10;0.10;;;7.70;99.90;;;;;;5106514;28;20134;-82
2021/11/13 00:43:58;;;;;;;0.10;0.10;;;7.70;99.90;;;;;;5090320;28;20132;-82
2021/11/13 00:46:24;;;;;;;0.10;0.10;;;7.70;99.90;;;;;;5124037;28;20041;-87
2021/11/13 00:48:51;;;;;;;0.10;0.10;;;7.70;99.90;;;;;;5106821;28;20378;-82
2021/11/13 00:51:18;;;;;;;0.10;0.10;;;7.70;99.90;;;;;;5106691;28;20040;-82
2021/11/13 00:53:45;;;;;;;0.00;0.00;;;7.70;99.90;;;;;;5123630;28;20441;-82
2021/11/13 00:56:11;;;;;;;0.10;0.10;;;7.70;99.90;;;;;;5090371;28;20405;-87
2021/11/13 00:58:39;;;;;;;0.10;0.10;;;7.90;99.90;;;;;;5090068;28;20097;-82
2021/11/13 01:01:06;;;;;;;0.10;0.10;;;7.70;99.90;;;;;;5106792;28;20049;-87
2021/11/13 01:03:33;;;;;;;0.10;0.10;;;7.90;99.90;;;;;;5106504;28;20133;-82
2021/11/13 01:06:00;;;;;;;0.03;0.03;;;7.70;99.90;;;;;;5089967;28;20048;-87
2021/11/13 01:08:27;;;;;;;0.10;0.10;;;7.80;99.90;;;;;;5106385;28;20051;-83
2021/11/13 01:10:53;;;;;;;0.05;0.05;;;7.70;99.90;;;;;;5107064;28;20041;-83
2021/11/13 01:13:22;;;;;;;0.10;0.10;;;7.80;99.90;;;;;;5106545;28;20117;-87
2021/11/13 01:15:49;;;;;;;0.47;0.20;;;7.80;99.90;;;;;;5123079;28;20045;-85
2021/11/13 01:18:16;;;;;;;0.10;0.10;;;7.80;99.90;;;;;;5107042;28;20028;-87
2021/11/13 01:20:43;;;;;;;0.00;0.00;;;7.80;99.90;;;;;;5106608;28;20036;-82
2021/11/13 01:23:10;;;;;;;0.10;0.10;;;7.80;99.90;;;;;;5106790;28;20122;-82
2021/11/13 01:25:36;;;;;;;0.10;0.10;;;7.80;99.90;;;;;;5106566;28;20396;-87
2021/11/13 01:28:03;;;;;;;0.10;0.10;;;7.80;99.90;;;;;;5106959;28;20481;-87
2021/11/13 01:30:30;;;;;;;0.00;0.00;;;7.80;99.90;;;;;;5106507;28;20040;-82
2021/11/13 01:32:57;;;;;;;0.10;0.10;;;7.80;99.90;;;;;;5123236;28;20083;-82
2021/11/13 01:35:25;;;;;;;0.10;0.10;;;7.80;99.90;;;;;;5106447;28;20106;-82
2021/11/13 01:37:53;;;;;;;0.00;0.00;;;7.80;99.90;;;;;;5105895;28;20037;-82
2021/11/13 01:40:22;;;;;;;0.10;0.10;;;7.80;99.90;;;;;;5106861;28;20032;-87
2021/11/13 01:42:49;;;;;;;0.00;0.00;;;7.80;99.90;;;;;;5123130;28;20115;-86
2021/11/13 01:45:17;;;;;;;0.00;0.00;;;7.80;99.90;;;;;;5123027;28;20571;-87
2021/11/13 01:47:48;;;;;;;0.10;0.10;;;7.80;99.90;;;;;;5089600;28;20067;-82
2021/11/13 01:50:19;;;;;;;0.10;0.10;;;7.80;99.90;;;;;;5100057;28;20083;-86
2021/11/13 01:52:48;;;;;;;0.00;0.00;;;7.80;99.90;;;;;;5105983;28;20036;-87
2021/11/13 01:55:21;;;;;;;0.10;0.10;;;7.80;99.90;;;;;;5093045;28;20036;-87
2021/11/13 01:57:48;;;;;;;0.03;0.03;;;7.70;99.90;;;;;;5127365;28;20044;-82
2021/11/13 02:00:26;;;;;;;0.00;0.00;;;7.80;99.90;;;;;;5110691;28;20055;-86
2021/11/13 02:02:53;;;;;;;0.10;0.10;;;7.80;99.90;;;;;;5126811;28;20523;-82
2021/11/13 02:05:20;;;;;;;0.08;0.08;;;7.80;99.90;;;;;;5109686;28;20079;-82
2021/11/13 02:07:47;;;;;;;0.10;0.10;;;7.80;99.90;;;;;;5109809;28;20041;-87
2021/11/13 02:10:15;;;;;;;0.00;0.00;;;7.80;99.90;;;;;;5127116;28;20040;-87
2021/11/13 02:12:42;;;;;;;0.10;0.10;;;7.70;99.90;;;;;;5126620;28;20814;-81
2021/11/13 02:15:11;;;;;;;0.00;0.00;;;7.80;99.90;;;;;;5109679;28;20071;-81
2021/11/13 02:17:38;;;;;;;0.10;0.10;;;7.80;99.90;;;;;;5126295;28;20072;-82
2021/11/13 02:20:22;;;;;;;0.10;0.10;;;8.30;99.90;;;;;;5109654;28;20032;-87
2021/11/13 02:22:49;;;;;;;0.10;0.10;;;7.80;99.90;;;;;;5126893;28;20078;-86
2021/11/13 02:25:18;;;;;;;0.00;0.00;;;7.80;99.90;;;;;;5126913;28;20047;-86
2021/11/13 02:27:45;;;;;;;0.00;0.00;;;7.80;99.90;;;;;;5092989;28;20090;-81
2021/11/13 02:30:13;;;;;;;0.30;0.30;;;7.80;99.90;;;;;;5126286;28;20044;-87
2021/11/13 02:32:40;;;;;;;0.00;0.00;;;7.80;99.90;;;;;;5126391;28;20036;-82
2021/11/13 02:35:09;;;;;;;0.10;0.10;;;7.80;99.90;;;;;;5109739;28;20090;-84
2021/11/13 02:37:36;;;;;;;0.10;0.10;;;7.80;99.90;;;;;;5109451;28;20082;-85
2021/11/13 02:40:05;;;;;;;0.10;0.10;;;7.80;99.90;;;;;;5110013;28;20059;-85
2021/11/13 02:42:34;;;;;;;1.98;0.40;;;7.80;99.90;;;;;;5126390;28;20098;-85
2021/11/13 02:45:04;;;;;;;0.10;0.10;;;7.80;99.90;;;;;;5109854;28;20070;-80
2021/11/13 02:47:33;;;;;;;0.10;0.10;;;7.80;99.90;;;;;;5127008;28;20032;-86
2021/11/13 02:50:01;;;;;;;0.10;0.10;;;7.90;99.90;;;;;;5109737;28;20076;-80
2021/11/13 02:52:39;;;;;;;0.10;0.10;;;7.90;99.90;;;;;;5126585;28;20090;-85
2021/11/13 02:55:07;;;;;;;0.10;0.10;;;7.90;99.90;;;;;;5107956;28;20036;-80
2021/11/13 02:57:33;;;;;;;0.10;0.10;;;7.90;99.90;;;;;;5092750;28;20413;-80
2021/11/13 03:00:00;;;;;;;0.10;0.10;;;7.90;99.90;;;;;;5108647;28;20048;-85
2021/11/13 03:02:27;;;;;;;0.00;0.00;;;7.90;99.90;;;;;;5126111;28;20040;-81
2021/11/13 03:04:54;;;;;;;0.15;0.15;;;7.90;99.90;;;;;;5124957;28;20186;-85
2021/11/13 03:07:20;;;;;;;0.10;0.10;;;7.90;99.90;;;;;;5109178;28;20685;-85
2021/11/13 03:09:47;;;;;;;0.15;0.15;;;7.90;99.90;;;;;;5092428;28;20400;-81
2021/11/13 03:12:14;;;;;;;0.10;0.10;;;7.90;99.90;;;;;;5109370;28;20582;-80
2021/11/13 03:14:41;;;;;;;0.20;0.20;;;7.90;99.90;;;;;;5125309;28;20044;-81
2021/11/13 03:17:11;;;;;;;0.00;0.00;;;7.90;99.90;;;;;;5109142;28;20037;-80
2021/11/13 03:19:38;;;;;;;0.10;0.10;;;7.90;99.90;;;;;;5125493;28;20543;-84
2021/11/13 03:22:05;;;;;;;0.08;0.08;;;8.10;99.90;;;;;;5125752;28;20045;-81
2021/11/13 03:24:32;;;;;;;0.00;0.00;;;7.90;99.90;;;;;;5092117;28;20040;-85
2021/11/13 03:27:00;;;;;;;0.10;0.10;;;7.90;99.90;;;;;;5108203;28;20542;-81
2021/11/13 03:29:29;;;;;;;0.10;0.10;;;7.90;99.90;;;;;;5125972;28;20040;-81
2021/11/13 03:31:57;;;;;;;0.10;0.10;;;7.90;99.90;;;;;;5091760;28;20055;-81
2021/11/13 03:34:23;;;;;;;0.10;0.10;;;7.90;99.90;;;;;;5091787;28;20127;-86
2021/11/13 03:36:50;;;;;;;0.00;0.00;;;8.00;99.90;;;;;;5091707;28;20123;-81
2021/11/13 03:39:17;;;;;;;0.00;0.00;;;7.90;99.90;;;;;;5108390;28;20493;-85
2021/11/13 03:41:44;;;;;;;0.00;0.00;;;8.00;99.90;;;;;;5108219;28;20485;-82
2021/11/13 03:44:10;;;;;;;0.10;0.10;;;8.00;99.90;;;;;;5108268;28;20047;-85
2021/11/13 03:46:37;;;;;;;0.08;0.08;;;8.00;99.90;;;;;;5108286;28;20048;-85
2021/11/13 03:49:04;;;;;;;0.08;0.08;;;8.00;99.90;;;;;;5091352;28;20515;-86
2021/11/13 03:51:30;;;;;;;0.10;0.10;;;7.90;99.90;;;;;;5091624;28;20040;-85
2021/11/13 03:53:57;;;;;;;0.00;0.00;;;8.00;99.90;;;;;;5124564;28;20047;-81
2021/11/13 03:56:24;;;;;;;0.10;0.10;;;8.00;99.90;;;;;;5108436;28;20041;-86
2021/11/13 03:58:51;;;;;;;0.10;0.10;;;8.00;99.90;;;;;;5107880;28;20036;-82
2021/11/13 04:01:17;;;;;;;0.10;0.10;;;8.00;99.90;;;;;;5107581;28;20048;-81
2021/11/13 04:03:44;;;;;;;1.35;0.20;;;8.00;99.90;;;;;;5107596;28;20040;-82
2021/11/13 04:06:11;;;;;;;0.10;0.10;;;8.00;99.90;;;;;;5125100;28;20044;-81
2021/11/13 04:08:37;;;;;;;0.10;0.10;;;8.00;99.90;;;;;;5124659;28;20124;-81
2021/11/13 04:11:04;;;;;;;0.10;0.10;;;8.00;99.90;;;;;;5124645;28;20075;-86
2021/11/13 04:13:31;;;;;;;0.08;0.08;;;8.00;99.90;;;;;;5124865;28;20405;-86
2021/11/13 04:15:58;;;;;;;0.10;0.10;;;8.00;99.90;;;;;;5107626;28;20082;-86
2021/11/13 04:18:24;;;;;;;0.10;0.10;;;8.00;99.90;;;;;;5107504;28;20549;-81
2021/11/13 04:20:51;;;;;;;0.10;0.10;;;8.10;99.90;;;;;;5090920;28;20040;-81
2021/11/13 04:23:18;;;;;;;0.10;0.10;;;8.10;99.90;;;;;;5107013;28;20580;-86
2021/11/13 04:25:45;;;;;;;0.00;0.00;;;8.10;99.90;;;;;;5090637;28;20047;-82
2021/11/13 04:28:11;;;;;;;0.00;0.00;;;8.10;99.90;;;;;;5107619;28;20135;-81
2021/11/13 04:30:38;;;;;;;0.10;0.10;;;8.10;99.90;;;;;;5090345;28;20485;-82
2021/11/13 04:33:05;;;;;;;0.10;0.10;;;8.10;99.90;;;;;;5106568;28;20040;-86
2021/11/13 04:38:00;;;;;;;0.10;0.10;;;8.10;99.90;;;;;;5106697;28;20032;-81
2021/11/13 04:40:30;;;;;;;0.00;0.00;;;8.10;99.90;;;;;;5124251;28;20040;-86
2021/11/13 04:42:57;;;;;;;0.00;0.00;;;8.20;99.90;;;;;;5123941;28;20040;-86
2021/11/13 04:45:24;;;;;;;0.20;0.20;;;8.10;99.90;;;;;;5123828;28;20047;-81
2021/11/13 04:47:51;;;;;;;0.00;0.00;;;8.20;99.90;;;;;;5106859;28;20051;-86
2021/11/13 04:50:21;;;;;;;0.10;0.10;;;8.20;99.90;;;;;;5123608;28;20459;-86
2021/11/13 04:52:48;;;;;;;0.10;0.10;;;8.20;99.90;;;;;;5123489;28;20485;-83
2021/11/13 04:55:17;;;;;;;0.05;0.05;;;8.20;99.90;;;;;;5123509;28;20045;-82
2021/11/13 04:57:43;;;;;;;0.10;0.10;;;8.20;99.90;;;;;;5123616;28;20036;-86
2021/11/13 05:00:13;;;;;;;0.00;0.00;;;8.20;99.90;;;;;;5123276;28;20106;-86
2021/11/13 05:02:40;;;;;;;0.10;0.10;;;8.20;99.90;;;;;;5089866;28;20182;-87
2021/11/13 05:05:08;;;;;;;0.10;0.10;;;8.20;99.90;;;;;;5123583;28;20079;-82
2021/11/13 05:07:35;;;;;;;0.00;0.00;;;8.20;99.90;;;;;;5123722;28;20040;-82
2021/11/13 05:10:02;;;;;;;0.10;0.10;;;8.20;99.90;;;;;;5106140;28;20044;-82
2021/11/13 05:12:29;;;;;;;0.10;0.10;;;8.30;99.90;;;;;;5123522;28;20404;-82
2021/11/13 05:14:56;;;;;;;0.10;0.10;;;8.30;99.90;;;;;;5089446;28;20053;-86
2021/11/13 05:17:22;;;;;;;0.10;0.10;;;8.30;99.90;;;;;;5106459;28;20039;-82
2021/11/13 05:19:49;;;;;;;0.10;0.10;;;8.30;99.90;;;;;;5089798;28;20070;-86
2021/11/13 05:22:16;;;;;;;0.00;0.00;;;8.30;99.90;;;;;;5106130;28;20036;-82
2021/11/13 05:24:43;;;;;;;0.10;0.10;;;8.30;99.90;;;;;;5089649;28;20037;-86
2021/11/13 05:27:10;;;;;;;0.00;0.00;;;8.30;99.90;;;;;;5123042;28;20045;-82
2021/11/13 05:29:37;;;;;;;0.00;0.00;;;8.30;99.90;;;;;;5105437;28;20040;-82
2021/11/13 05:32:04;;;;;;;0.10;0.10;;;8.40;99.90;;;;;;5089394;28;20094;-82
2021/11/13 05:34:31;;;;;;;0.10;0.10;;;8.30;99.90;;;;;;5123330;28;20043;-83
2021/11/13 05:36:58;;;;;;;0.10;0.10;;;8.40;99.90;;;;;;5105801;28;20036;-87
2021/11/13 05:39:24;;;;;;;0.08;0.08;;;8.40;99.90;;;;;;5106137;28;20036;-82
2021/11/13 05:41:52;;;;;;;0.10;0.10;;;8.40;99.90;;;;;;5122777;28;20074;-82
2021/11/13 05:44:19;;;;;;;0.10;0.10;;;8.40;99.90;;;;;;5122854;28;20051;-86
2021/11/13 05:46:50;;;;;;;0.10;0.10;;;8.40;99.90;;;;;;5106532;28;20044;-82
2021/11/13 05:49:17;;;;;;;0.10;0.10;;;8.40;99.90;;;;;;5122801;28;20408;-87
2021/11/13 05:51:44;;;;;;;0.10;0.10;;;8.40;99.90;;;;;;5123261;28;20051;-82
2021/11/13 05:54:10;;;;;;;0.10;0.10;;;8.50;99.90;;;;;;5122806;28;20045;-86
2021/11/13 05:56:37;;;;;;;0.00;0.00;;;8.50;99.90;;;;;;5106531;28;20040;-86
2021/11/13 05:59:04;;;;;;;0.10;0.10;;;8.40;99.90;;;;;;5106003;28;20036;-85
2021/11/13 06:01:31;;;;;;;0.03;0.03;;;8.40;99.90;;;;;;5089455;28;20110;-86
2021/11/13 06:03:59;;;;;;;0.00;0.00;;;8.40;99.90;;;;;;5105822;28;20045;-86
2021/11/13 06:06:26;;;;;;;0.00;0.00;;;8.40;99.90;;;;;;5106542;28;20052;-82
2021/11/13 06:08:52;;;;;;;0.10;0.10;;;8.40;99.90;;;;;;5106233;28;20503;-86
2021/11/13 06:11:19;;;;;;;0.00;0.00;;;8.50;99.90;;;;;;5105915;28;20110;-82
2021/11/13 06:13:46;;;;;;;0.00;0.00;;;8.50;99.90;;;;;;5105760;28;20652;-82
2021/11/13 06:16:12;;;;;;;0.00;0.00;;;8.50;99.90;;;;;;5105848;28;20067;-81
2021/11/13 06:18:39;;;;;;;0.10;0.10;;;8.50;99.90;;;;;;5089487;28;20043;-87
2021/11/13 06:21:07;;;;;;;0.10;0.10;;;8.50;99.90;;;;;;5106096;28;20041;-87
2021/11/13 06:23:36;;;;;;;0.10;0.10;;;8.50;99.90;;;;;;5122585;28;20051;-82
2021/11/13 06:26:03;;;;;;;0.10;0.10;;;8.50;99.90;;;;;;5122319;28;20041;-82
2021/11/13 06:28:31;;;;;;;0.10;0.10;;;8.50;99.90;;;;;;5089187;28;20044;-86
2021/11/13 06:30:57;;;;;;;0.00;0.00;;;8.50;99.90;;;;;;5098719;28;20040;-82
2021/11/13 06:33:24;;;;;;;0.10;0.10;;;8.50;99.90;;;;;;5057952;28;20052;-87
2021/11/13 06:35:51;;;;;;;0.03;0.03;;;9.20;99.90;;;;;;5052919;28;20048;-82
2021/11/13 06:38:18;;;;;;;0.00;0.00;;;8.50;99.90;;;;;;5052095;28;20041;-82
2021/11/13 06:40:45;;;;;;;0.08;0.08;;;8.60;99.90;;;;;;5088570;28;20029;-82
2021/11/13 06:43:11;;;;;;;0.08;0.08;;;8.50;99.90;;;;;;5072608;28;20099;-86
2021/11/13 06:45:38;;;;;;;0.10;0.10;;;8.60;99.90;;;;;;5056475;28;20505;-87
2021/11/13 06:48:05;;;;;;;0.10;0.10;;;8.60;99.90;;;;;;5125094;28;20047;-83
2021/11/13 06:50:33;;;;;;;0.00;0.00;;;8.60;99.90;;;;;;5090157;28;20064;-87
2021/11/13 06:53:01;;;;;;;0.10;0.10;;;8.60;99.90;;;;;;5089533;28;20056;-87
2021/11/13 06:55:28;;;;;;;0.10;0.10;;;8.60;99.90;;;;;;5089358;28;20033;-87
2021/11/13 06:57:55;;;;;;;0.08;0.08;;;8.60;99.90;;;;;;5105395;28;20072;-82
2021/11/13 07:00:22;;;;;;;0.10;0.10;;;8.60;99.90;;;;;;5071878;28;20084;-83
2021/11/13 07:02:49;;;;;;;0.10;0.10;;;8.50;99.90;;;;;;5055760;28;20072;-87
2021/11/13 07:05:15;;;;;;;0.10;0.10;;;8.60;99.90;;;;;;5079387;28;20068;-82
2021/11/13 07:07:42;;;;;;;0.10;0.10;;;8.60;99.90;;;;;;5055141;28;20037;-82
2021/11/13 07:10:15;;;;;;;0.00;0.00;;;8.60;99.90;;;;;;5074582;28;20048;-87
2021/11/13 07:12:42;;;;;;;0.00;0.00;;;8.60;99.90;;;;;;5087393;28;20033;-82
2021/11/13 07:15:10;;;;;;;0.10;0.10;;;8.60;99.90;;;;;;5088659;28;20044;-82
2021/11/13 07:17:36;;;;;;;0.00;0.00;;;8.60;99.90;;;;;;5088448;28;20041;-83
2021/11/13 07:20:04;;;;;;;0.08;0.08;;;8.60;99.90;;;;;;5133711;28;20036;-82
2021/11/13 07:22:31;;;;;;;0.08;0.08;;;8.60;99.90;;;;;;5104716;28;20032;-87
2021/11/13 07:24:58;;;;;;;0.10;0.10;;;8.60;99.90;;;;;;5060893;28;20032;-87
2021/11/13 07:27:25;;;;;;;0.10;0.10;;;8.50;99.90;;;;;;5072259;28;20070;-87
2021/11/13 07:30:03;;;;;;;0.00;0.00;;;8.60;99.90;;;;;;5088884;28;20037;-82
2021/11/13 07:32:31;;;;;;;0.10;0.10;;;8.60;99.90;;;;;;5081892;28;20049;-82
2021/11/13 07:34:58;;;;;;;0.10;0.10;;;8.60;99.90;;;;;;5065768;28;20052;-87
2021/11/13 07:37:25;;;;;;;0.00;0.00;;;8.60;99.90;;;;;;5097023;28;20040;-87
2021/11/13 07:39:54;;;;;;;0.00;0.00;;;8.60;99.90;;;;;;5108432;28;20037;-87
2021/11/13 07:42:21;;;;;;;0.00;0.00;;;8.70;99.90;;;;;;5119640;28;20444;-82
2021/11/13 07:44:49;;;;;;;0.00;0.00;;;8.60;99.90;;;;;;5083017;28;20041;-87
2021/11/13 07:47:16;;;;;;;0.00;0.00;;;8.60;99.90;;;;;;5125007;28;20040;-82
2021/11/13 07:49:43;;;;;;;0.00;0.00;;;8.60;99.90;;;;;;5088527;28;20075;-82
2021/11/13 07:52:10;;;;;;;0.00;0.00;;;8.60;99.90;;;;;;5053677;28;20068;-83
2021/11/13 07:54:36;;;;;;;0.00;0.00;;;8.60;99.90;;;;;;5071176;28;20087;-82
2021/11/13 07:57:06;;;;;;;0.10;0.10;;;8.60;99.90;;;;;;5089732;28;20120;-82
2021/11/13 07:59:33;;;;;;;0.10;0.10;;;8.60;99.90;;;;;;5107771;28;20041;-82
2021/11/13 08:02:00;;;;;;;0.03;0.03;;;8.70;99.90;;;;;;5108403;28;20135;-82
2021/11/13 08:04:27;;;;;;;0.10;0.10;;;8.60;99.90;;;;;;5123932;28;20040;-82
2021/11/13 08:06:53;;;;;;;0.08;0.08;;;8.60;99.90;;;;;;5124961;28;20044;-87
2021/11/13 08:09:20;;;;;;;0.00;0.00;;;8.60;99.90;;;;;;5124098;28;20550;-87
2021/11/13 08:11:48;;;;;;;0.10;0.10;;;8.90;99.90;;;;;;5125420;28;20088;-88
2021/11/13 08:14:15;;;;;;;0.00;0.00;;;8.70;99.90;;;;;;5107026;28;20052;-87
2021/11/13 08:16:42;;;;;;;0.00;0.00;;;8.70;99.90;;;;;;5124627;28;20040;-87
2021/11/13 08:19:09;;;;;;;0.10;0.10;;;8.70;99.90;;;;;;5107426;28;20045;-86
2021/11/13 08:21:36;;;;;;;0.00;0.00;;;8.70;99.90;;;;;;5090805;28;20097;-87
2021/11/13 08:24:03;;;;;;;0.00;0.00;;;8.70;99.90;;;;;;5107221;28;20036;-87
2021/11/13 08:26:29;;;;;;;0.10;0.10;;;8.70;99.90;;;;;;5107241;28;20068;-82
2021/11/13 08:28:56;;;;;;;0.10;0.10;;;8.70;99.90;;;;;;5107219;28;20071;-87
2021/11/13 08:31:23;;;;;;;0.22;0.20;;;8.70;99.90;;;;;;5123493;28;20040;-87
2021/11/13 08:33:50;;;;;;;0.00;0.00;;;8.70;99.90;;;;;;5106957;28;20048;-81
2021/11/13 08:36:16;;;;;;;0.00;0.00;;;8.70;99.90;;;;;;5123549;28;20072;-82
2021/11/13 08:38:43;;;;;;;0.10;0.10;;;8.80;99.90;;;;;;5090453;28;20094;-82
2021/11/13 08:41:10;;;;;;;0.10;0.10;;;8.70;99.90;;;;;;5106825;28;20039;-87
2021/11/13 08:43:36;;;;;;;0.10;0.10;;;8.80;99.90;;;;;;5106972;28;20127;-87
2021/11/13 08:46:04;;;;;;;0.03;0.03;;;8.70;99.90;;;;;;5107293;28;20036;-87
2021/11/13 08:48:31;;;;;;;0.00;0.00;;;8.80;99.90;;;;;;5106882;28;20526;-86
2021/11/13 08:50:58;;;;;;;0.10;0.10;;;8.70;99.90;;;;;;5124475;28;20044;-87
2021/11/13 08:53:25;;;;;;;0.10;0.10;;;8.80;99.90;;;;;;5110980;28;20521;-82
2021/11/13 08:55:51;;;;;;;0.00;0.00;;;8.80;99.90;;;;;;5086499;28;20036;-81
2021/11/13 08:58:18;;;;;;;0.28;0.20;;;8.80;99.90;;;;;;5089486;28;20375;-82
2021/11/13 09:00:58;;;;;;;0.00;0.00;;;8.80;99.90;;;;;;5132859;28;20048;-87
2021/11/13 09:03:32;;;;;;;0.00;0.00;;;8.80;99.90;;;;;;5122290;28;20051;-82
2021/11/13 09:06:06;;;;;;;0.00;0.00;;;8.90;99.90;;;;;;5090751;28;20037;-87
2021/11/13 09:08:33;;;;;;;0.00;0.00;;;8.90;99.90;;;;;;5106557;28;20045;-86
2021/11/13 09:10:59;;;;;;;0.10;0.10;;;8.90;99.90;;;;;;5107023;28;20090;-85
2021/11/13 09:13:27;;;;;;;0.10;0.10;;;8.90;99.90;;;;;;5106731;28;20488;-83
2021/11/13 09:15:57;;;;;;;0.10;0.10;;;8.90;99.90;;;;;;5122806;28;20519;-81
2021/11/13 09:18:24;;;;;;;0.10;0.10;;;9.00;99.90;;;;;;5122312;28;20039;-82
2021/11/13 09:20:51;;;;;;;0.00;0.00;;;9.00;99.90;;;;;;5122755;28;20044;-82
2021/11/13 09:23:17;;;;;;;0.00;0.00;;;9.00;99.90;;;;;;5106311;28;20080;-83
2021/11/13 09:25:46;;;;;;;0.10;0.10;;;9.00;99.90;;;;;;5106257;28;20079;-82
2021/11/13 09:28:13;;;;;;;0.00;0.00;;;9.10;99.90;;;;;;5122963;28;20045;-81
2021/11/13 09:30:41;;;;;;;0.10;0.10;;;9.10;99.90;;;;;;5105922;28;20044;-83
2021/11/13 09:33:09;;;;;;;0.28;0.28;;;9.20;99.90;;;;;;5122550;28;20041;-81
2021/11/13 09:35:37;;;;;;;0.15;0.15;;;9.20;99.90;;;;;;5122521;28;20039;-82
2021/11/13 09:38:04;;;;;;;0.00;0.00;;;9.10;99.90;;;;;;5122745;28;20405;-82
2021/11/13 09:40:31;;;;;;;0.00;0.00;;;9.20;99.90;;;;;;5089072;28;20044;-82
2021/11/13 09:43:05;;;;;;;0.00;0.00;;;9.20;99.90;;;;;;5123107;28;20037;-82
2021/11/13 09:45:32;;;;;;;0.08;0.08;;;9.20;99.90;;;;;;5089493;28;20037;-82
2021/11/13 09:48:00;;;;;;;0.00;0.00;;;9.30;99.90;;;;;;5105925;28;20105;-83
2021/11/13 09:50:31;;;;;;;0.00;0.00;;;9.30;99.90;;;;;;5088567;28;20040;-84
2021/11/13 09:52:58;;;;;;;0.10;0.10;;;9.40;99.90;;;;;;5122617;28;20119;-85
2021/11/13 09:55:26;;;;;;;0.00;0.00;;;9.40;99.90;;;;;;5122816;28;20040;-85
2021/11/13 09:57:53;;;;;;;0.47;0.20;;;9.40;99.90;;;;;;5089684;28;20036;-82
2021/11/13 10:00:26;;;;;;;0.10;0.10;;;9.50;99.90;;;;;;5105587;28;20044;-86
2021/11/13 10:02:53;;;;;;;0.10;0.10;;;9.50;99.90;;;;;;5122523;28;20037;-83
2021/11/13 10:05:19;;;;;;;0.00;0.00;;;9.50;99.90;;;;;;5087448;28;20044;-83
2021/11/13 10:07:46;;;;;;;0.00;0.00;;;9.50;99.90;;;;;;5072284;28;20124;-84
2021/11/13 10:10:29;;;;;;;0.03;0.03;;;9.60;99.90;;;;;;5088163;28;20068;-85
2021/11/13 10:13:00;;;;;;;0.00;0.00;;;9.60;99.90;;;;;;5088937;28;20067;-83
2021/11/13 10:15:36;;;;;;;0.05;0.05;;;9.60;99.90;;;;;;5090922;28;20043;-84
2021/11/13 10:18:27;;;;;;;0.00;0.00;;;9.70;99.90;;;;;;5093283;28;20040;-86
2021/11/13 10:20:57;;;;;;;0.00;0.00;;;9.70;99.90;;;;;;5092501;28;20066;-82
2021/11/13 10:23:27;;;;;;;0.00;0.00;;;9.70;99.90;;;;;;5093087;28;20048;-81
2021/11/13 10:26:06;;;;;;;0.00;0.00;;;9.80;99.90;;;;;;5092701;28;20127;-82
2021/11/13 10:28:42;;;;;;;0.00;0.00;;;9.80;99.90;;;;;;5108658;28;20058;-85
2021/11/13 10:31:18;;;;;;;;;;;9.70;99.90;;;;;;5108567;28;20043;-85
2021/11/13 10:33:46;;;;;;;0.00;0.00;;;9.80;99.90;;;;;;5114579;28;19947;-81
2021/11/13 10:36:25;;;;;;;0.00;0.00;;;9.80;99.90;;;;;;5097068;28;20301;-84
2021/11/13 10:39:08;;;;;;;0.38;0.35;;;9.80;99.90;;;;;;5092052;28;20044;-82
2021/11/13 10:41:54;;;;;;;0.00;0.00;;;9.80;99.90;;;;;;5095077;28;20069;-82
2021/11/13 10:44:24;;;;;;;0.10;0.10;;;9.80;99.90;;;;;;5092642;28;20032;-85
2021/11/13 10:46:51;;;;;;;0.00;0.00;;;9.80;99.90;;;;;;5091764;28;20048;-84
2021/11/13 10:49:19;;;;;;;0.00;0.00;;;9.80;99.90;;;;;;5091997;28;20040;-82
2021/11/13 10:52:06;;;;;;;0.28;0.25;;;9.80;99.90;;;;;;5091808;28;20040;-81
2021/11/13 10:54:33;;;;;;;0.00;0.00;;;9.80;99.90;;;;;;5055196;28;20045;-84
2021/11/13 10:57:06;;;;;;;0.00;0.00;;;9.80;99.90;;;;;;5075792;28;20229;-81
2021/11/13 10:59:34;;;;;;;0.00;0.00;;;9.90;99.90;;;;;;5091526;28;20041;-83
2021/11/13 11:02:09;;;;;;;0.10;0.10;;;9.90;99.90;;;;;;5108980;28;20055;-84
2021/11/13 11:04:39;;;;;;;0.03;0.03;;;9.90;99.90;;;;;;5093950;28;20100;-84
2021/11/13 11:07:10;;;;;;;0.00;0.00;;;9.90;99.90;;;;;;5075638;28;20101;-82
2021/11/13 11:09:55;;;;;;;0.00;0.00;;;9.90;99.90;;;;;;5107661;28;20047;-84
2021/11/13 11:12:26;;;;;;;0.08;0.08;;;9.90;99.90;;;;;;5108221;28;20135;-82
2021/11/13 11:14:53;;;;;;;0.10;0.10;;;9.90;99.90;;;;;;5055319;28;20040;-81
2021/11/13 11:17:26;;;;;;;0.00;0.00;;;9.90;99.90;;;;;;5105178;28;20588;-84
2021/11/13 11:19:55;;;;;;;0.03;0.03;;;9.90;99.90;;;;;;5078130;28;20040;-84
2021/11/13 11:22:27;;;;;;;0.00;0.00;;;9.90;99.90;;;;;;5108246;28;20036;-82
2021/11/13 11:24:56;;;;;;;0.28;0.28;;;9.90;99.90;;;;;;5074756;28;20186;-84
2021/11/13 11:27:41;;;;;;;0.10;0.10;;;9.90;99.90;;;;;;5107354;28;20095;-84
2021/11/13 11:30:15;;;;;;;0.00;0.00;;;9.90;99.90;;;;;;5108263;28;20041;-84
2021/11/13 11:32:42;;;;;;;0.00;0.00;;;9.90;99.90;;;;;;5091192;28;20048;-82
2021/11/13 11:35:10;;;;;;;0.00;0.00;;;9.90;99.90;;;;;;5108182;28;20131;-84
2021/11/13 11:37:40;;;;;;;0.00;0.00;;;9.90;99.90;;;;;;5091406;28;20032;-84
2021/11/13 11:40:16;;;;;;;0.20;0.20;;;9.90;99.90;;;;;;5107973;28;20052;-83
2021/11/13 11:42:44;;;;;;;0.00;0.00;;;9.90;99.90;;;;;;5090798;28;20412;-81
2021/11/13 11:45:13;;;;;;;0.00;0.00;;;9.90;99.90;;;;;;5091158;28;20114;-84
2021/11/13 11:47:42;;;;;;;0.00;0.00;;;9.90;99.90;;;;;;5124460;28;20044;-81
2021/11/13 11:50:12;;;;;;;0.00;0.00;;;9.90;99.90;;;;;;5123896;28;20052;-84
2021/11/13 11:52:43;;;;;;;0.00;0.00;;;9.90;99.90;;;;;;5091097;28;20548;-83
2021/11/13 11:55:13;;;;;;;0.10;0.10;;;9.90;99.90;;;;;;5090984;28;20087;-81
2021/11/13 11:57:43;;;;;;;0.08;0.05;;;9.90;99.90;;;;;;5091553;28;20059;-81
2021/11/13 12:00:13;;;;;;;0.00;0.00;;;9.90;99.90;;;;;;5090386;28;20497;-81
2021/11/13 12:02:45;;;;;;;0.20;0.10;;;10.00;99.90;;;;;;5107558;28;20485;-81
2021/11/13 12:05:16;;;;;;;0.00;0.00;;;10.00;99.90;;;;;;5091028;28;20037;-81
2021/11/13 12:07:45;;;;;;;3.55;0.15;;;10.00;99.90;;;;;;5090327;28;20033;-81
2021/11/13 12:10:20;;;;;;;0.10;0.10;;;10.10;99.90;;;;;;5074140;28;20055;-84
2021/11/13 12:13:07;;;;;;;;;;;10.00;99.90;;;;;;5091041;28;20075;-84
2021/11/13 12:15:46;;;;;;;0.00;0.00;;;10.00;99.90;;;;;;5071181;28;19916;-84
2021/11/13 12:18:19;;;;;;;0.00;0.00;;;10.10;99.90;;;;;;5089666;28;20471;-85
2021/11/13 12:20:48;;;;;;;0.28;0.10;;;10.10;99.90;;;;;;5087261;28;20048;-84
2021/11/13 12:23:46;;;;;;;0.00;0.00;;;10.10;99.90;;;;;;5089667;28;20036;-81
2021/11/13 12:26:20;;;;;;;0.05;0.05;;;10.20;99.90;;;;;;5107299;28;20107;-82
2021/11/13 12:28:46;;;;;;;0.03;0.03;;;10.30;99.90;;;;;;5106269;28;20123;-82
2021/11/13 12:31:15;;;;;;;0.00;0.00;;;10.30;99.90;;;;;;5090595;28;20189;-89
2021/11/13 12:33:52;;;;;;;0.00;0.00;;;10.40;99.90;;;;;;5106815;28;20075;-88
2021/11/13 12:36:22;;;;;;;0.00;0.00;;;10.50;99.90;;;;;;5090920;28;20040;-88
2021/11/13 12:38:55;;;;;;;0.00;0.00;;;10.60;99.90;;;;;;5089140;28;20068;-83
2021/11/13 12:41:49;;;;;;;0.00;0.00;;;10.70;99.90;;;;;;5090127;28;20080;-88
2021/11/13 12:44:19;;;;;;;0.10;0.10;;;10.60;99.90;;;;;;5090187;28;20507;-83
2021/11/13 12:46:52;;;;;;;0.00;0.00;;;10.70;99.90;;;;;;5106773;28;20040;-83
2021/11/13 12:49:19;;;;;;;0.10;0.10;;;10.70;99.90;;;;;;5090225;28;20048;-84
2021/11/13 12:51:52;;;;;;;0.10;0.10;;;10.70;99.90;;;;;;5089923;28;20523;-87
2021/11/13 12:54:51;;;;;;;0.00;0.00;;;10.80;99.90;;;;;;5089685;28;20043;-83
2021/11/13 12:57:26;;;;;;;0.00;0.00;;;10.70;99.90;;;;;;5090965;28;20052;-83
2021/11/13 13:00:00;;;;;;;0.08;0.08;;;10.70;99.90;;;;;;5122082;28;20128;-86
2021/11/13 13:02:30;;;;;;;0.10;0.10;;;10.70;99.90;;;;;;5090831;28;20535;-88
2021/11/13 13:04:57;;;;;;;0.00;0.00;;;10.80;99.90;;;;;;5089246;28;21475;-87
2021/11/13 13:07:24;;;;;;;0.00;0.00;;;10.70;99.90;;;;;;5101146;28;20047;-87
2021/11/13 13:09:52;;;;;;;0.00;0.00;;;10.80;99.90;;;;;;5105058;28;20044;-82